sensor_id;sensor_type;location;lat;lon;timestamp;pressure;altitude;pressure_sealevel;temperature;humidity
16664;BME280;8445;51.270;9.434;2022-11-03T00:01:48;99855.00;;;5.62;65.90
16664;BME280;8445;51.270;9.434;2022-11-03T00:04:17;99843.28;;;5.69;66.73
16664;BME280;8445;51.270;9.434;2022-11-03T00:06:47;99842.06;;;5.76;65.99
16664;BME280;8445;51.270;9.434;2022-11-03T00:09:16;99844.25;;;5.86;66.85
16664;BME280;8445;51.270;9.434;2022-11-03T00:11:47;99837.06;;;5.89;65.72
16664;BME280;8445;51.270;9.434;2022-11-03T00:14:15;99830.03;;;5.90;65.90
16664;BME280;8445;51.270;9.434;2022-11-03T00:16:42;99824.78;;;5.90;65.79
16664;BME280;8445;51.270;9.434;2022-11-03T00:19:09;99826.47;;;5.91;66.07
16664;BME280;8445;51.270;9.434;2022-11-03T00:21:36;99821.06;;;5.94;64.98
16664;BME280;8445;51.270;9.434;2022-11-03T00:24:03;99831.41;;;5.97;65.07
16664;BME280;8445;51.270;9.434;2022-11-03T00:26:31;99823.63;;;5.96;66.05
16664;BME280;8445;51.270;9.434;2022-11-03T00:29:01;99833.88;;;6.02;67.04
16664;BME280;8445;51.270;9.434;2022-11-03T00:31:33;99833.47;;;6.10;66.85
16664;BME280;8445;51.270;9.434;2022-11-03T00:34:00;99833.00;;;6.19;66.10
16664;BME280;8445;51.270;9.434;2022-11-03T00:36:29;99835.94;;;6.30;65.36
16664;BME280;8445;51.270;9.434;2022-11-03T00:38:56;99833.63;;;6.42;65.42
16664;BME280;8445;51.270;9.434;2022-11-03T00:41:24;99831.72;;;6.61;66.29
16664;BME280;8445;51.270;9.434;2022-11-03T00:43:51;99818.44;;;6.80;66.44
16664;BME280;8445;51.270;9.434;2022-11-03T00:46:19;99813.25;;;6.96;66.38
16664;BME280;8445;51.270;9.434;2022-11-03T00:48:46;99804.94;;;7.04;64.67
16664;BME280;8445;51.270;9.434;2022-11-03T00:53:55;99799.06;;;7.15;66.91
16664;BME280;8445;51.270;9.434;2022-11-03T00:56:29;99797.38;;;7.14;66.61
16664;BME280;8445;51.270;9.434;2022-11-03T00:58:57;99790.75;;;7.07;65.80
16664;BME280;8445;51.270;9.434;2022-11-03T01:01:28;99795.84;;;7.10;65.69
16664;BME280;8445;51.270;9.434;2022-11-03T01:03:57;99792.97;;;7.15;65.08
16664;BME280;8445;51.270;9.434;2022-11-03T01:06:48;99797.78;;;7.22;65.31
16664;BME280;8445;51.270;9.434;2022-11-03T01:12:11;99799.47;;;7.39;67.51
16664;BME280;8445;51.270;9.434;2022-11-03T01:14:41;99801.59;;;7.49;66.52
16664;BME280;8445;51.270;9.434;2022-11-03T01:17:13;99798.28;;;7.61;66.80
16664;BME280;8445;51.270;9.434;2022-11-03T01:19:39;99780.91;;;7.73;66.38
16664;BME280;8445;51.270;9.434;2022-11-03T01:22:05;99774.34;;;7.80;65.79
16664;BME280;8445;51.270;9.434;2022-11-03T01:24:31;99777.00;;;7.80;65.48
16664;BME280;8445;51.270;9.434;2022-11-03T01:26:57;99780.38;;;7.82;65.78
16664;BME280;8445;51.270;9.434;2022-11-03T01:29:22;99767.91;;;7.86;66.33
16664;BME280;8445;51.270;9.434;2022-11-03T01:31:48;99765.16;;;7.88;65.74
16664;BME280;8445;51.270;9.434;2022-11-03T01:34:17;99761.69;;;7.87;65.96
16664;BME280;8445;51.270;9.434;2022-11-03T01:36:44;99742.56;;;7.83;65.88
16664;BME280;8445;51.270;9.434;2022-11-03T01:39:13;99729.00;;;7.75;65.58
16664;BME280;8445;51.270;9.434;2022-11-03T01:41:42;99721.09;;;7.61;65.62
16664;BME280;8445;51.270;9.434;2022-11-03T01:49:50;99721.28;;;7.41;70.28
16664;BME280;8445;51.270;9.434;2022-11-03T01:52:30;99716.19;;;7.38;70.84
16664;BME280;8445;51.270;9.434;2022-11-03T01:55:09;99709.63;;;7.31;68.80
16664;BME280;8445;51.270;9.434;2022-11-03T01:57:50;99712.13;;;7.33;68.00
16664;BME280;8445;51.270;9.434;2022-11-03T02:00:18;99715.53;;;7.35;67.21
16664;BME280;8445;51.270;9.434;2022-11-03T02:02:45;99720.09;;;7.47;67.63
16664;BME280;8445;51.270;9.434;2022-11-03T02:05:14;99714.13;;;7.60;67.75
16664;BME280;8445;51.270;9.434;2022-11-03T02:08:09;99712.50;;;7.88;68.24
16664;BME280;8445;51.270;9.434;2022-11-03T02:10:37;99700.47;;;7.98;65.38
16664;BME280;8445;51.270;9.434;2022-11-03T02:13:17;99698.13;;;8.08;67.35
16664;BME280;8445;51.270;9.434;2022-11-03T02:15:45;99692.00;;;8.07;65.52
16664;BME280;8445;51.270;9.434;2022-11-03T02:18:13;99690.31;;;8.06;65.24
16664;BME280;8445;51.270;9.434;2022-11-03T02:20:41;99680.78;;;8.04;65.64
16664;BME280;8445;51.270;9.434;2022-11-03T02:25:56;99682.69;;;8.01;67.67
16664;BME280;8445;51.270;9.434;2022-11-03T02:28:29;99681.91;;;7.99;67.89
16664;BME280;8445;51.270;9.434;2022-11-03T02:31:17;99678.44;;;7.99;67.54
16664;BME280;8445;51.270;9.434;2022-11-03T02:34:31;99679.47;;;7.96;68.96
16664;BME280;8445;51.270;9.434;2022-11-03T02:37:08;99670.44;;;7.86;67.60
16664;BME280;8445;51.270;9.434;2022-11-03T02:39:51;99665.25;;;7.84;68.04
16664;BME280;8445;51.270;9.434;2022-11-03T02:42:22;99669.31;;;7.76;67.30
16664;BME280;8445;51.270;9.434;2022-11-03T02:44:52;99665.06;;;7.73;67.59
16664;BME280;8445;51.270;9.434;2022-11-03T02:47:21;99663.63;;;7.67;67.44
16664;BME280;8445;51.270;9.434;2022-11-03T02:49:52;99659.59;;;7.62;66.67
16664;BME280;8445;51.270;9.434;2022-11-03T02:52:44;99659.78;;;7.59;67.42
16664;BME280;8445;51.270;9.434;2022-11-03T02:58:44;99663.88;;;7.48;67.06
16664;BME280;8445;51.270;9.434;2022-11-03T03:01:38;99660.50;;;7.46;67.43
16664;BME280;8445;51.270;9.434;2022-11-03T03:04:41;99654.72;;;7.39;67.35
16664;BME280;8445;51.270;9.434;2022-11-03T03:07:26;99657.47;;;7.38;66.83
16664;BME280;8445;51.270;9.434;2022-11-03T03:10:03;99657.47;;;7.38;67.06
16664;BME280;8445;51.270;9.434;2022-11-03T03:12:34;99661.84;;;7.37;67.87
16664;BME280;8445;51.270;9.434;2022-11-03T03:15:05;99652.59;;;7.46;68.14
16664;BME280;8445;51.270;9.434;2022-11-03T03:17:48;99649.16;;;7.60;68.33
16664;BME280;8445;51.270;9.434;2022-11-03T03:20:31;99646.78;;;7.70;68.15
16664;BME280;8445;51.270;9.434;2022-11-03T03:23:15;99640.41;;;7.74;68.14
16664;BME280;8445;51.270;9.434;2022-11-03T03:25:49;99646.44;;;7.76;67.37
16664;BME280;8445;51.270;9.434;2022-11-03T03:31:03;99640.22;;;7.77;66.83
16664;BME280;8445;51.270;9.434;2022-11-03T03:33:32;99639.28;;;7.78;66.84
16664;BME280;8445;51.270;9.434;2022-11-03T03:36:02;99633.47;;;7.88;67.18
16664;BME280;8445;51.270;9.434;2022-11-03T03:38:37;99635.16;;;7.89;67.29
16664;BME280;8445;51.270;9.434;2022-11-03T03:41:07;99628.13;;;7.89;66.48
16664;BME280;8445;51.270;9.434;2022-11-03T03:43:35;99628.03;;;7.91;66.29
16664;BME280;8445;51.270;9.434;2022-11-03T03:46:09;99623.31;;;7.96;67.19
16664;BME280;8445;51.270;9.434;2022-11-03T03:48:36;99622.75;;;7.91;66.31
16664;BME280;8445;51.270;9.434;2022-11-03T03:51:03;99620.03;;;7.92;66.81
16664;BME280;8445;51.270;9.434;2022-11-03T03:53:31;99606.19;;;7.89;67.09
16664;BME280;8445;51.270;9.434;2022-11-03T03:55:57;99608.63;;;7.92;67.21
16664;BME280;8445;51.270;9.434;2022-11-03T03:58:24;99607.88;;;7.90;66.41
16664;BME280;8445;51.270;9.434;2022-11-03T04:00:49;99609.00;;;7.85;66.51
16664;BME280;8445;51.270;9.434;2022-11-03T04:03:23;99597.53;;;7.86;66.63
16664;BME280;8445;51.270;9.434;2022-11-03T04:05:50;99591.31;;;7.88;66.31
16664;BME280;8445;51.270;9.434;2022-11-03T04:08:18;99585.41;;;7.84;66.62
16664;BME280;8445;51.270;9.434;2022-11-03T04:10:45;99578.66;;;7.80;67.09
16664;BME280;8445;51.270;9.434;2022-11-03T04:13:31;99571.38;;;7.69;66.61
16664;BME280;8445;51.270;9.434;2022-11-03T04:16:16;99575.16;;;7.65;66.36
16664;BME280;8445;51.270;9.434;2022-11-03T04:19:01;99571.97;;;7.60;66.48
16664;BME280;8445;51.270;9.434;2022-11-03T04:21:45;99573.84;;;7.57;67.10
16664;BME280;8445;51.270;9.434;2022-11-03T04:24:30;99570.44;;;7.55;66.81
16664;BME280;8445;51.270;9.434;2022-11-03T04:27:10;99558.22;;;7.54;66.95
16664;BME280;8445;51.270;9.434;2022-11-03T04:29:39;99554.34;;;7.46;66.64
16664;BME280;8445;51.270;9.434;2022-11-03T04:32:15;99558.59;;;7.48;67.40
16664;BME280;8445;51.270;9.434;2022-11-03T04:34:44;99560.84;;;7.40;67.45
16664;BME280;8445;51.270;9.434;2022-11-03T04:37:15;99547.88;;;7.37;67.82
16664;BME280;8445;51.270;9.434;2022-11-03T04:39:41;99546.16;;;7.36;68.52
16664;BME280;8445;51.270;9.434;2022-11-03T04:42:20;99553.97;;;7.37;68.59
16664;BME280;8445;51.270;9.434;2022-11-03T04:44:48;99547.66;;;7.25;68.18
16664;BME280;8445;51.270;9.434;2022-11-03T04:47:16;99538.25;;;7.21;68.45
16664;BME280;8445;51.270;9.434;2022-11-03T04:49:43;99533.84;;;7.22;68.09
16664;BME280;8445;51.270;9.434;2022-11-03T04:52:20;99532.97;;;7.21;70.30
16664;BME280;8445;51.270;9.434;2022-11-03T04:54:49;99528.84;;;7.17;68.45
16664;BME280;8445;51.270;9.434;2022-11-03T04:57:17;99530.91;;;7.12;67.64
16664;BME280;8445;51.270;9.434;2022-11-03T04:59:46;99530.91;;;7.12;68.25
16664;BME280;8445;51.270;9.434;2022-11-03T05:02:18;99524.88;;;7.10;68.16
16664;BME280;8445;51.270;9.434;2022-11-03T05:04:45;99519.06;;;7.05;67.79
16664;BME280;8445;51.270;9.434;2022-11-03T05:07:32;99523.00;;;7.12;70.35
16664;BME280;8445;51.270;9.434;2022-11-03T05:10:00;99522.44;;;7.07;68.81
16664;BME280;8445;51.270;9.434;2022-11-03T05:12:28;99509.38;;;7.05;68.22
16664;BME280;8445;51.270;9.434;2022-11-03T05:14:54;99514.66;;;7.05;67.33
16664;BME280;8445;51.270;9.434;2022-11-03T05:17:23;99515.50;;;7.06;67.99
16664;BME280;8445;51.270;9.434;2022-11-03T05:19:57;99514.84;;;7.17;68.89
16664;BME280;8445;51.270;9.434;2022-11-03T05:22:32;99506.31;;;7.27;68.47
16664;BME280;8445;51.270;9.434;2022-11-03T05:25:05;99496.34;;;7.33;68.31
16664;BME280;8445;51.270;9.434;2022-11-03T05:27:35;99507.44;;;7.38;67.94
16664;BME280;8445;51.270;9.434;2022-11-03T05:30:01;99489.03;;;7.38;67.82
16664;BME280;8445;51.270;9.434;2022-11-03T05:32:32;99496.56;;;7.44;68.44
16664;BME280;8445;51.270;9.434;2022-11-03T05:34:59;99489.66;;;7.41;67.39
16664;BME280;8445;51.270;9.434;2022-11-03T05:37:30;99492.03;;;7.46;68.05
16664;BME280;8445;51.270;9.434;2022-11-03T05:40:22;99487.22;;;7.53;69.11
16664;BME280;8445;51.270;9.434;2022-11-03T05:43:01;99482.25;;;7.48;68.60
16664;BME280;8445;51.270;9.434;2022-11-03T05:45:36;99485.91;;;7.46;70.39
16664;BME280;8445;51.270;9.434;2022-11-03T05:50:56;99475.31;;;7.33;68.37
16664;BME280;8445;51.270;9.434;2022-11-03T05:53:31;99480.19;;;7.39;69.88
16664;BME280;8445;51.270;9.434;2022-11-03T05:56:05;99481.22;;;7.36;68.78
16664;BME280;8445;51.270;9.434;2022-11-03T05:58:36;99480.84;;;7.42;68.40
16664;BME280;8445;51.270;9.434;2022-11-03T06:03:44;99479.34;;;7.38;68.54
16664;BME280;8445;51.270;9.434;2022-11-03T06:06:22;99480.66;;;7.46;69.02
16664;BME280;8445;51.270;9.434;2022-11-03T06:08:51;99476.81;;;7.37;68.19
16664;BME280;8445;51.270;9.434;2022-11-03T06:11:36;99478.00;;;7.46;69.80
16664;BME280;8445;51.270;9.434;2022-11-03T06:14:24;99478.00;;;7.46;70.28
16664;BME280;8445;51.270;9.434;2022-11-03T06:19:37;99478.00;;;7.46;69.22
16664;BME280;8445;51.270;9.434;2022-11-03T06:22:35;99470.22;;;7.59;70.88
16664;BME280;8445;51.270;9.434;2022-11-03T06:25:28;99482.63;;;7.56;69.73
16664;BME280;8445;51.270;9.434;2022-11-03T06:28:03;99478.31;;;7.55;69.27
16664;BME280;8445;51.270;9.434;2022-11-03T06:30:38;99473.06;;;7.55;69.17
16664;BME280;8445;51.270;9.434;2022-11-03T06:33:29;99477.19;;;7.60;69.06
16664;BME280;8445;51.270;9.434;2022-11-03T06:36:07;99471.34;;;7.54;68.54
16664;BME280;8445;51.270;9.434;2022-11-03T06:38:35;99472.13;;;7.56;68.98
16664;BME280;8445;51.270;9.434;2022-11-03T06:41:01;99482.03;;;7.66;69.14
16664;BME280;8445;51.270;9.434;2022-11-03T06:43:40;99468.22;;;7.77;69.94
16664;BME280;8445;51.270;9.434;2022-11-03T06:46:22;99476.69;;;7.82;69.90
16664;BME280;8445;51.270;9.434;2022-11-03T06:48:51;99472.06;;;7.85;68.96
16664;BME280;8445;51.270;9.434;2022-11-03T06:51:25;99474.84;;;7.97;69.18
16664;BME280;8445;51.270;9.434;2022-11-03T06:53:54;99466.56;;;8.03;68.81
16664;BME280;8445;51.270;9.434;2022-11-03T06:56:26;99470.50;;;8.10;68.96
16664;BME280;8445;51.270;9.434;2022-11-03T06:58:55;99463.16;;;8.15;68.49
16664;BME280;8445;51.270;9.434;2022-11-03T07:01:28;99466.34;;;8.21;68.64
16664;BME280;8445;51.270;9.434;2022-11-03T07:04:01;99463.19;;;8.28;68.90
16664;BME280;8445;51.270;9.434;2022-11-03T07:06:35;99458.56;;;8.32;68.93
16664;BME280;8445;51.270;9.434;2022-11-03T07:09:05;99455.84;;;8.34;68.74
16664;BME280;8445;51.270;9.434;2022-11-03T07:11:39;99449.50;;;8.36;68.89
16664;BME280;8445;51.270;9.434;2022-11-03T07:14:24;99438.56;;;8.42;69.04
16664;BME280;8445;51.270;9.434;2022-11-03T07:16:55;99444.56;;;8.44;68.33
16664;BME280;8445;51.270;9.434;2022-11-03T07:19:42;99449.16;;;8.55;68.82
16664;BME280;8445;51.270;9.434;2022-11-03T07:22:21;99436.09;;;8.54;68.94
16664;BME280;8445;51.270;9.434;2022-11-03T07:24:55;99442.00;;;8.57;71.28
16664;BME280;8445;51.270;9.434;2022-11-03T07:27:25;99434.19;;;8.56;68.96
16664;BME280;8445;51.270;9.434;2022-11-03T07:29:58;99433.03;;;8.60;69.46
16664;BME280;8445;51.270;9.434;2022-11-03T07:32:32;99426.41;;;8.67;68.39
16664;BME280;8445;51.270;9.434;2022-11-03T07:37:48;99426.63;;;8.77;69.27
16664;BME280;8445;51.270;9.434;2022-11-03T07:40:22;99419.13;;;8.84;69.15
16664;BME280;8445;51.270;9.434;2022-11-03T07:42:50;99411.88;;;8.87;69.03
16664;BME280;8445;51.270;9.434;2022-11-03T07:45:43;99401.94;;;9.04;70.61
16664;BME280;8445;51.270;9.434;2022-11-03T07:48:33;99402.16;;;9.14;70.62
16664;BME280;8445;51.270;9.434;2022-11-03T07:51:27;99401.28;;;9.26;69.29
16664;BME280;8445;51.270;9.434;2022-11-03T07:56:47;99381.97;;;9.39;70.07
16664;BME280;8445;51.270;9.434;2022-11-03T07:59:22;99381.00;;;9.40;69.50
16664;BME280;8445;51.270;9.434;2022-11-03T08:01:55;99376.13;;;9.46;69.87
16664;BME280;8445;51.270;9.434;2022-11-03T08:04:28;99375.47;;;9.56;69.40
16664;BME280;8445;51.270;9.434;2022-11-03T08:06:55;99375.03;;;9.62;68.53
16664;BME280;8445;51.270;9.434;2022-11-03T08:09:21;99368.44;;;9.68;68.69
16664;BME280;8445;51.270;9.434;2022-11-03T08:11:47;99367.03;;;9.75;69.24
16664;BME280;8445;51.270;9.434;2022-11-03T08:14:13;99365.41;;;9.85;68.75
16664;BME280;8445;51.270;9.434;2022-11-03T08:16:39;99354.41;;;9.91;68.37
16664;BME280;8445;51.270;9.434;2022-11-03T08:19:05;99354.19;;;9.94;68.60
16664;BME280;8445;51.270;9.434;2022-11-03T08:21:32;99360.94;;;9.99;68.33
16664;BME280;8445;51.270;9.434;2022-11-03T08:23:58;99360.44;;;10.05;68.58
16664;BME280;8445;51.270;9.434;2022-11-03T08:26:24;99356.41;;;10.12;68.36
16664;BME280;8445;51.270;9.434;2022-11-03T08:28:50;99347.44;;;10.26;68.52
16664;BME280;8445;51.270;9.434;2022-11-03T08:31:17;99339.97;;;10.31;68.64
16664;BME280;8445;51.270;9.434;2022-11-03T08:33:43;99325.47;;;10.37;68.53
16664;BME280;8445;51.270;9.434;2022-11-03T08:36:09;99334.91;;;10.52;68.47
16664;BME280;8445;51.270;9.434;2022-11-03T08:38:36;99331.19;;;10.55;68.81
16664;BME280;8445;51.270;9.434;2022-11-03T08:41:02;99318.47;;;10.72;68.54
16664;BME280;8445;51.270;9.434;2022-11-03T08:43:28;99317.38;;;10.86;68.32
16664;BME280;8445;51.270;9.434;2022-11-03T08:45:54;99304.75;;;10.89;68.43
16664;BME280;8445;51.270;9.434;2022-11-03T08:48:25;99311.97;;;10.98;68.50
16664;BME280;8445;51.270;9.434;2022-11-03T08:50:53;99311.63;;;11.03;68.47
16664;BME280;8445;51.270;9.434;2022-11-03T08:53:20;99302.94;;;11.12;68.53
16664;BME280;8445;51.270;9.434;2022-11-03T08:55:47;99300.00;;;11.27;68.72
16664;BME280;8445;51.270;9.434;2022-11-03T08:58:13;99303.78;;;11.68;68.86
16664;BME280;8445;51.270;9.434;2022-11-03T09:00:42;99295.84;;;12.01;67.96
16664;BME280;8445;51.270;9.434;2022-11-03T09:03:12;99300.00;;;12.15;67.88
16664;BME280;8445;51.270;9.434;2022-11-03T09:05:42;99309.41;;;12.29;67.61
16664;BME280;8445;51.270;9.434;2022-11-03T09:08:11;99298.69;;;12.52;67.84
16664;BME280;8445;51.270;9.434;2022-11-03T09:10:41;99279.09;;;12.74;67.91
16664;BME280;8445;51.270;9.434;2022-11-03T09:13:12;99285.03;;;12.97;67.57
16664;BME280;8445;51.270;9.434;2022-11-03T09:15:41;99269.72;;;13.11;67.33
16664;BME280;8445;51.270;9.434;2022-11-03T09:18:11;99277.59;;;13.32;67.29
16664;BME280;8445;51.270;9.434;2022-11-03T09:20:40;99279.63;;;13.49;67.14
16664;BME280;8445;51.270;9.434;2022-11-03T09:23:09;99262.53;;;13.62;66.71
16664;BME280;8445;51.270;9.434;2022-11-03T09:25:38;99255.13;;;13.75;66.64
16664;BME280;8445;51.270;9.434;2022-11-03T09:28:06;99256.09;;;13.84;66.69
16664;BME280;8445;51.270;9.434;2022-11-03T09:30:32;99247.44;;;13.92;66.40
16664;BME280;8445;51.270;9.434;2022-11-03T09:32:57;99239.44;;;14.02;66.51
16664;BME280;8445;51.270;9.434;2022-11-03T09:35:23;99238.13;;;14.16;66.84
16664;BME280;8445;51.270;9.434;2022-11-03T09:37:49;99227.03;;;14.30;66.92
16664;BME280;8445;51.270;9.434;2022-11-03T09:40:16;99213.13;;;14.46;67.07
16664;BME280;8445;51.270;9.434;2022-11-03T09:42:43;99205.13;;;14.56;66.85
16664;BME280;8445;51.270;9.434;2022-11-03T09:45:09;99204.03;;;14.77;66.89
16664;BME280;8445;51.270;9.434;2022-11-03T09:47:38;99196.25;;;14.93;66.78
16664;BME280;8445;51.270;9.434;2022-11-03T09:50:12;99209.28;;;14.96;66.52
16664;BME280;8445;51.270;9.434;2022-11-03T09:52:39;99207.59;;;14.95;67.03
16664;BME280;8445;51.270;9.434;2022-11-03T09:55:16;99212.31;;;15.02;66.43
16664;BME280;8445;51.270;9.434;2022-11-03T09:57:42;99207.91;;;15.10;67.03
16664;BME280;8445;51.270;9.434;2022-11-03T10:00:23;99204.91;;;15.23;65.56
16664;BME280;8445;51.270;9.434;2022-11-03T10:02:54;99193.00;;;15.18;66.62
16664;BME280;8445;51.270;9.434;2022-11-03T10:05:28;99195.69;;;15.18;64.55
16664;BME280;8445;51.270;9.434;2022-11-03T10:08:04;99190.03;;;15.21;65.62
16664;BME280;8445;51.270;9.434;2022-11-03T10:10:34;99191.34;;;15.35;66.53
16664;BME280;8445;51.270;9.434;2022-11-03T10:13:01;99186.47;;;15.48;66.43
16664;BME280;8445;51.270;9.434;2022-11-03T10:15:34;99183.88;;;15.56;66.48
16664;BME280;8445;51.270;9.434;2022-11-03T10:18:01;99178.00;;;15.71;66.04
16664;BME280;8445;51.270;9.434;2022-11-03T10:20:29;99177.50;;;15.76;65.66
16664;BME280;8445;51.270;9.434;2022-11-03T10:22:56;99167.31;;;15.89;65.61
16664;BME280;8445;51.270;9.434;2022-11-03T10:25:36;99159.56;;;16.04;64.00
16664;BME280;8445;51.270;9.434;2022-11-03T10:28:24;99149.63;;;16.14;63.46
16664;BME280;8445;51.270;9.434;2022-11-03T10:31:04;99145.66;;;16.19;63.99
16664;BME280;8445;51.270;9.434;2022-11-03T10:33:38;99139.34;;;16.28;66.20
16664;BME280;8445;51.270;9.434;2022-11-03T10:36:25;99139.44;;;16.44;64.53
16664;BME280;8445;51.270;9.434;2022-11-03T10:38:52;99128.59;;;16.46;65.68
16664;BME280;8445;51.270;9.434;2022-11-03T10:41:30;99125.97;;;16.63;65.04
16664;BME280;8445;51.270;9.434;2022-11-03T10:44:04;99123.84;;;16.74;64.94
16664;BME280;8445;51.270;9.434;2022-11-03T10:46:31;99118.00;;;16.71;65.96
16664;BME280;8445;51.270;9.434;2022-11-03T10:51:35;99107.97;;;16.81;65.03
16664;BME280;8445;51.270;9.434;2022-11-03T10:54:03;99099.63;;;16.84;65.00
16664;BME280;8445;51.270;9.434;2022-11-03T10:56:34;99103.47;;;16.82;64.47
16664;BME280;8445;51.270;9.434;2022-11-03T10:59:01;99094.13;;;16.78;64.91
16664;BME280;8445;51.270;9.434;2022-11-03T11:01:27;99081.06;;;16.66;64.94
16664;BME280;8445;51.270;9.434;2022-11-03T11:03:53;99069.19;;;16.44;64.69
16664;BME280;8445;51.270;9.434;2022-11-03T11:06:25;99069.81;;;16.38;64.14
16664;BME280;8445;51.270;9.434;2022-11-03T11:08:58;99061.66;;;16.39;64.67
16664;BME280;8445;51.270;9.434;2022-11-03T11:11:24;99066.34;;;16.37;64.58
16664;BME280;8445;51.270;9.434;2022-11-03T11:16:59;99041.94;;;16.24;64.73
16664;BME280;8445;51.270;9.434;2022-11-03T11:19:28;99041.09;;;16.32;65.26
16664;BME280;8445;51.270;9.434;2022-11-03T11:33:00;99009.97;;;16.65;63.92
16664;BME280;8445;51.270;9.434;2022-11-03T11:41:19;98987.25;;;16.53;64.05
16664;BME280;8445;51.270;9.434;2022-11-03T11:43:50;98980.56;;;16.49;64.71
16664;BME280;8445;51.270;9.434;2022-11-03T11:46:37;98982.44;;;16.56;62.44
16664;BME280;8445;51.270;9.434;2022-11-03T11:49:15;98969.75;;;16.58;61.77
16664;BME280;8445;51.270;9.434;2022-11-03T11:51:41;98970.09;;;16.64;64.13
16664;BME280;8445;51.270;9.434;2022-11-03T11:54:16;98966.91;;;16.68;61.31
16664;BME280;8445;51.270;9.434;2022-11-03T11:56:46;98963.56;;;16.66;63.25
16664;BME280;8445;51.270;9.434;2022-11-03T11:59:22;98958.22;;;16.66;63.02
16664;BME280;8445;51.270;9.434;2022-11-03T12:01:51;98935.38;;;16.64;62.66
16664;BME280;8445;51.270;9.434;2022-11-03T12:04:29;98934.19;;;16.66;62.11
16664;BME280;8445;51.270;9.434;2022-11-03T12:06:55;98931.53;;;16.58;63.26
16664;BME280;8445;51.270;9.434;2022-11-03T12:09:25;98934.38;;;16.56;62.76
16664;BME280;8445;51.270;9.434;2022-11-03T12:11:59;98923.19;;;16.53;62.76
16664;BME280;8445;51.270;9.434;2022-11-03T12:19:52;98906.50;;;16.59;62.35
16664;BME280;8445;51.270;9.434;2022-11-03T12:29:54;98860.88;;;16.94;61.55
16664;BME280;8445;51.270;9.434;2022-11-03T12:32:21;98855.72;;;17.00;62.86
16664;BME280;8445;51.270;9.434;2022-11-03T12:34:47;98849.72;;;17.07;62.74
16664;BME280;8445;51.270;9.434;2022-11-03T12:37:13;98840.31;;;17.11;62.71
16664;BME280;8445;51.270;9.434;2022-11-03T12:39:39;98840.94;;;17.21;62.57
16664;BME280;8445;51.270;9.434;2022-11-03T12:42:06;98839.91;;;17.30;62.41
16664;BME280;8445;51.270;9.434;2022-11-03T12:44:32;98841.59;;;17.31;62.34
16664;BME280;8445;51.270;9.434;2022-11-03T12:46:58;98840.41;;;17.34;62.32
16664;BME280;8445;51.270;9.434;2022-11-03T12:49:24;98832.56;;;17.32;62.11
16664;BME280;8445;51.270;9.434;2022-11-03T12:51:50;98823.88;;;17.30;61.89
16664;BME280;8445;51.270;9.434;2022-11-03T12:54:16;98829.75;;;17.26;61.78
16664;BME280;8445;51.270;9.434;2022-11-03T12:56:42;98817.22;;;17.26;61.79
16664;BME280;8445;51.270;9.434;2022-11-03T12:59:08;98819.72;;;17.28;61.66
16664;BME280;8445;51.270;9.434;2022-11-03T13:01:37;98817.88;;;17.28;61.77
16664;BME280;8445;51.270;9.434;2022-11-03T13:04:03;98814.38;;;17.28;61.88
16664;BME280;8445;51.270;9.434;2022-11-03T13:06:31;98823.53;;;17.33;62.17
16664;BME280;8445;51.270;9.434;2022-11-03T13:08:57;98812.13;;;17.40;61.69
16664;BME280;8445;51.270;9.434;2022-11-03T13:11:23;98806.44;;;17.43;61.36
16664;BME280;8445;51.270;9.434;2022-11-03T13:14:07;98802.75;;;17.44;61.29
16664;BME280;8445;51.270;9.434;2022-11-03T13:16:33;98798.94;;;17.38;60.92
16664;BME280;8445;51.270;9.434;2022-11-03T13:19:00;98798.31;;;17.36;60.86
16664;BME280;8445;51.270;9.434;2022-11-03T13:21:26;98777.31;;;17.25;61.25
16664;BME280;8445;51.270;9.434;2022-11-03T13:23:52;98774.47;;;17.18;61.51
16664;BME280;8445;51.270;9.434;2022-11-03T13:26:18;98778.84;;;17.11;61.27
16664;BME280;8445;51.270;9.434;2022-11-03T13:28:44;98768.22;;;17.02;61.58
16664;BME280;8445;51.270;9.434;2022-11-03T13:31:10;98759.91;;;16.81;61.39
16664;BME280;8445;51.270;9.434;2022-11-03T13:33:38;98752.97;;;16.63;61.78
16664;BME280;8445;51.270;9.434;2022-11-03T13:36:04;98752.16;;;16.54;61.86
16664;BME280;8445;51.270;9.434;2022-11-03T13:38:30;98758.00;;;16.50;61.95
16664;BME280;8445;51.270;9.434;2022-11-03T13:40:56;98748.84;;;16.44;61.83
16664;BME280;8445;51.270;9.434;2022-11-03T13:43:22;98738.03;;;16.37;61.93
16664;BME280;8445;51.270;9.434;2022-11-03T13:45:48;98730.03;;;16.29;61.63
16664;BME280;8445;51.270;9.434;2022-11-03T13:48:14;98738.38;;;16.26;61.43
16664;BME280;8445;51.270;9.434;2022-11-03T13:50:46;98724.03;;;16.19;61.38
16664;BME280;8445;51.270;9.434;2022-11-03T13:53:15;98722.69;;;16.14;61.54
16664;BME280;8445;51.270;9.434;2022-11-03T13:55:41;98721.03;;;16.05;61.56
16664;BME280;8445;51.270;9.434;2022-11-03T13:58:06;98712.72;;;16.00;61.68
16664;BME280;8445;51.270;9.434;2022-11-03T14:00:32;98696.38;;;15.95;61.25
16664;BME280;8445;51.270;9.434;2022-11-03T14:03:01;98688.88;;;15.90;61.03
16664;BME280;8445;51.270;9.434;2022-11-03T14:05:27;98696.22;;;15.88;61.21
16664;BME280;8445;51.270;9.434;2022-11-03T14:07:53;98685.72;;;15.78;61.23
16664;BME280;8445;51.270;9.434;2022-11-03T14:10:19;98681.03;;;15.72;61.16
16664;BME280;8445;51.270;9.434;2022-11-03T14:12:44;98666.03;;;15.63;61.25
16664;BME280;8445;51.270;9.434;2022-11-03T14:15:11;98654.72;;;15.52;61.40
16664;BME280;8445;51.270;9.434;2022-11-03T14:17:38;98659.69;;;15.47;61.17
16664;BME280;8445;51.270;9.434;2022-11-03T14:20:08;98659.69;;;15.39;61.24
16664;BME280;8445;51.270;9.434;2022-11-03T14:22:35;98669.34;;;15.32;61.48
16664;BME280;8445;51.270;9.434;2022-11-03T14:25:04;98668.19;;;15.34;61.32
16664;BME280;8445;51.270;9.434;2022-11-03T14:27:30;98667.72;;;15.31;61.58
16664;BME280;8445;51.270;9.434;2022-11-03T14:29:55;98666.19;;;15.28;61.22
16664;BME280;8445;51.270;9.434;2022-11-03T14:32:21;98660.53;;;15.23;61.35
16664;BME280;8445;51.270;9.434;2022-11-03T14:34:50;98653.03;;;15.18;61.23
16664;BME280;8445;51.270;9.434;2022-11-03T14:37:16;98632.38;;;15.12;61.07
16664;BME280;8445;51.270;9.434;2022-11-03T14:39:42;98630.50;;;15.04;61.02
16664;BME280;8445;51.270;9.434;2022-11-03T14:42:13;98632.88;;;14.99;61.21
16664;BME280;8445;51.270;9.434;2022-11-03T14:44:43;98638.34;;;14.97;61.20
16664;BME280;8445;51.270;9.434;2022-11-03T14:47:15;98631.19;;;14.98;61.26
16664;BME280;8445;51.270;9.434;2022-11-03T14:49:49;98621.38;;;14.99;61.08